Terminal Aerodrome Forecast
Issued by NWS

Home | Current Version | Previous Version | Text Only | Print | Product List | Glossary On
Versions: 1 2 3 4 5 6 7 8 9 10 11 12 13 14 15
000
FTUS44 KMAF 210100 AAB
TAFHOB
TAF AMD
KHOB 210159Z 2102/2124 17011G21KT P6SM SCT080 SCT250
     FM210600 17011KT P6SM BKN200
     FM211500 18011G21KT P6SM SCT080 SCT250=

USA.gov is the U.S. government's official web portal to all federal, state and local government web resources and services.